sensor_id;sensor_type;location;lat;lon;timestamp;P1;durP1;ratioP1;P2;durP2;ratioP2
45760;SDS011;31471;51.040;14.414;2022-11-14T00:00:06;10.98;;;7.00;;
45760;SDS011;31471;51.040;14.414;2022-11-14T00:02:52;12.52;;;7.63;;
45760;SDS011;31471;51.040;14.414;2022-11-14T00:05:37;14.98;;;7.88;;
45760;SDS011;31471;51.040;14.414;2022-11-14T00:08:23;12.70;;;7.28;;
45760;SDS011;31471;51.040;14.414;2022-11-14T00:11:10;15.60;;;7.50;;
45760;SDS011;31471;51.040;14.414;2022-11-14T00:13:54;12.82;;;7.32;;
45760;SDS011;31471;51.040;14.414;2022-11-14T00:16:38;13.38;;;7.50;;
45760;SDS011;31471;51.040;14.414;2022-11-14T00:19:22;12.48;;;6.93;;
45760;SDS011;31471;51.040;14.414;2022-11-14T00:22:06;11.65;;;6.93;;
45760;SDS011;31471;51.040;14.414;2022-11-14T00:24:50;12.85;;;7.25;;
45760;SDS011;31471;51.040;14.414;2022-11-14T00:27:34;15.32;;;8.02;;
45760;SDS011;31471;51.040;14.414;2022-11-14T00:30:18;11.82;;;6.80;;
45760;SDS011;31471;51.040;14.414;2022-11-14T00:33:02;10.85;;;6.30;;
45760;SDS011;31471;51.040;14.414;2022-11-14T00:35:51;12.88;;;7.18;;
45760;SDS011;31471;51.040;14.414;2022-11-14T00:38:36;11.25;;;6.88;;
45760;SDS011;31471;51.040;14.414;2022-11-14T00:41:20;11.93;;;6.38;;
45760;SDS011;31471;51.040;14.414;2022-11-14T00:44:04;12.10;;;6.90;;
45760;SDS011;31471;51.040;14.414;2022-11-14T00:46:49;11.18;;;6.95;;
45760;SDS011;31471;51.040;14.414;2022-11-14T00:49:33;12.52;;;7.00;;
45760;SDS011;31471;51.040;14.414;2022-11-14T00:52:18;12.38;;;7.28;;
45760;SDS011;31471;51.040;14.414;2022-11-14T00:55:02;11.35;;;6.43;;
45760;SDS011;31471;51.040;14.414;2022-11-14T00:57:47;12.63;;;7.28;;
45760;SDS011;31471;51.040;14.414;2022-11-14T01:00:31;13.13;;;6.97;;
45760;SDS011;31471;51.040;14.414;2022-11-14T01:03:15;12.15;;;6.22;;
45760;SDS011;31471;51.040;14.414;2022-11-14T01:06:02;13.07;;;7.40;;
45760;SDS011;31471;51.040;14.414;2022-11-14T01:08:49;18.00;;;7.43;;
45760;SDS011;31471;51.040;14.414;2022-11-14T01:11:33;11.55;;;7.10;;
45760;SDS011;31471;51.040;14.414;2022-11-14T01:14:17;12.25;;;7.22;;
45760;SDS011;31471;51.040;14.414;2022-11-14T01:17:01;12.90;;;6.97;;
45760;SDS011;31471;51.040;14.414;2022-11-14T01:19:46;13.10;;;7.07;;
45760;SDS011;31471;51.040;14.414;2022-11-14T01:22:30;10.38;;;6.80;;
45760;SDS011;31471;51.040;14.414;2022-11-14T01:25:14;11.50;;;6.93;;
45760;SDS011;31471;51.040;14.414;2022-11-14T01:27:58;11.07;;;6.93;;
45760;SDS011;31471;51.040;14.414;2022-11-14T01:30:42;13.73;;;7.57;;
45760;SDS011;31471;51.040;14.414;2022-11-14T01:33:26;11.15;;;7.63;;
45760;SDS011;31471;51.040;14.414;2022-11-14T01:36:11;13.13;;;7.82;;
45760;SDS011;31471;51.040;14.414;2022-11-14T01:38:55;13.30;;;8.05;;
45760;SDS011;31471;51.040;14.414;2022-11-14T01:41:39;14.00;;;7.85;;
45760;SDS011;31471;51.040;14.414;2022-11-14T01:44:44;12.38;;;7.15;;
45760;SDS011;31471;51.040;14.414;2022-11-14T01:47:33;12.95;;;7.65;;
45760;SDS011;31471;51.040;14.414;2022-11-14T01:50:18;10.77;;;6.82;;
45760;SDS011;31471;51.040;14.414;2022-11-14T01:53:02;13.90;;;7.70;;
45760;SDS011;31471;51.040;14.414;2022-11-14T01:55:46;12.52;;;7.88;;
45760;SDS011;31471;51.040;14.414;2022-11-14T01:58:31;11.60;;;7.30;;
45760;SDS011;31471;51.040;14.414;2022-11-14T02:01:18;13.20;;;7.15;;
45760;SDS011;31471;51.040;14.414;2022-11-14T02:04:04;15.13;;;7.50;;
45760;SDS011;31471;51.040;14.414;2022-11-14T02:06:50;12.15;;;8.20;;
45760;SDS011;31471;51.040;14.414;2022-11-14T02:09:39;14.98;;;7.97;;
45760;SDS011;31471;51.040;14.414;2022-11-14T02:12:25;14.32;;;7.80;;
45760;SDS011;31471;51.040;14.414;2022-11-14T02:15:10;13.45;;;7.10;;
45760;SDS011;31471;51.040;14.414;2022-11-14T02:17:55;12.10;;;7.78;;
45760;SDS011;31471;51.040;14.414;2022-11-14T02:20:40;13.32;;;8.15;;
45760;SDS011;31471;51.040;14.414;2022-11-14T02:23:29;13.25;;;7.55;;
45760;SDS011;31471;51.040;14.414;2022-11-14T02:26:19;15.98;;;8.50;;
45760;SDS011;31471;51.040;14.414;2022-11-14T02:29:04;13.73;;;8.18;;
45760;SDS011;31471;51.040;14.414;2022-11-14T02:31:49;12.05;;;6.72;;
45760;SDS011;31471;51.040;14.414;2022-11-14T02:34:33;14.38;;;7.15;;
45760;SDS011;31471;51.040;14.414;2022-11-14T02:37:18;13.80;;;6.90;;
45760;SDS011;31471;51.040;14.414;2022-11-14T02:40:02;12.65;;;7.53;;
45760;SDS011;31471;51.040;14.414;2022-11-14T02:42:46;13.32;;;8.10;;
45760;SDS011;31471;51.040;14.414;2022-11-14T02:45:30;12.95;;;6.97;;
45760;SDS011;31471;51.040;14.414;2022-11-14T02:48:14;12.93;;;6.93;;
45760;SDS011;31471;51.040;14.414;2022-11-14T02:50:58;18.42;;;8.25;;
45760;SDS011;31471;51.040;14.414;2022-11-14T02:53:42;11.73;;;7.22;;
45760;SDS011;31471;51.040;14.414;2022-11-14T02:56:27;10.85;;;6.55;;
45760;SDS011;31471;51.040;14.414;2022-11-14T02:59:11;12.82;;;8.20;;
45760;SDS011;31471;51.040;14.414;2022-11-14T03:01:55;14.93;;;7.35;;
45760;SDS011;31471;51.040;14.414;2022-11-14T03:04:39;14.23;;;7.32;;
45760;SDS011;31471;51.040;14.414;2022-11-14T03:07:23;11.68;;;7.00;;
45760;SDS011;31471;51.040;14.414;2022-11-14T03:10:07;12.68;;;7.20;;
45760;SDS011;31471;51.040;14.414;2022-11-14T03:12:53;10.10;;;6.30;;
45760;SDS011;31471;51.040;14.414;2022-11-14T03:15:38;13.18;;;6.70;;
45760;SDS011;31471;51.040;14.414;2022-11-14T03:18:22;13.18;;;7.30;;
45760;SDS011;31471;51.040;14.414;2022-11-14T03:21:10;12.98;;;6.78;;
45760;SDS011;31471;51.040;14.414;2022-11-14T03:23:56;12.40;;;7.50;;
45760;SDS011;31471;51.040;14.414;2022-11-14T03:26:40;13.57;;;7.22;;
45760;SDS011;31471;51.040;14.414;2022-11-14T03:29:24;10.15;;;6.55;;
45760;SDS011;31471;51.040;14.414;2022-11-14T03:32:08;9.88;;;6.20;;
45760;SDS011;31471;51.040;14.414;2022-11-14T03:34:52;12.50;;;7.40;;
45760;SDS011;31471;51.040;14.414;2022-11-14T03:37:36;14.98;;;7.05;;
45760;SDS011;31471;51.040;14.414;2022-11-14T03:40:20;14.38;;;7.72;;
45760;SDS011;31471;51.040;14.414;2022-11-14T03:43:05;13.95;;;8.13;;
45760;SDS011;31471;51.040;14.414;2022-11-14T03:45:49;14.55;;;7.85;;
45760;SDS011;31471;51.040;14.414;2022-11-14T03:48:33;14.65;;;8.00;;
45760;SDS011;31471;51.040;14.414;2022-11-14T03:51:17;11.10;;;6.90;;
45760;SDS011;31471;51.040;14.414;2022-11-14T03:54:01;12.45;;;7.45;;
45760;SDS011;31471;51.040;14.414;2022-11-14T03:56:45;12.32;;;7.05;;
45760;SDS011;31471;51.040;14.414;2022-11-14T03:59:29;13.38;;;7.10;;
45760;SDS011;31471;51.040;14.414;2022-11-14T04:02:13;15.20;;;7.70;;
45760;SDS011;31471;51.040;14.414;2022-11-14T04:04:57;13.07;;;7.43;;
45760;SDS011;31471;51.040;14.414;2022-11-14T04:07:41;14.18;;;7.95;;
45760;SDS011;31471;51.040;14.414;2022-11-14T04:10:25;17.83;;;8.18;;
45760;SDS011;31471;51.040;14.414;2022-11-14T04:13:09;18.92;;;9.05;;
45760;SDS011;31471;51.040;14.414;2022-11-14T04:15:54;15.07;;;8.60;;
45760;SDS011;31471;51.040;14.414;2022-11-14T04:18:40;14.55;;;8.07;;
45760;SDS011;31471;51.040;14.414;2022-11-14T04:21:24;13.95;;;9.02;;
45760;SDS011;31471;51.040;14.414;2022-11-14T04:24:08;13.43;;;8.40;;
45760;SDS011;31471;51.040;14.414;2022-11-14T04:26:52;14.20;;;7.65;;
45760;SDS011;31471;51.040;14.414;2022-11-14T04:29:36;13.85;;;8.10;;
45760;SDS011;31471;51.040;14.414;2022-11-14T04:32:20;15.73;;;9.38;;
45760;SDS011;31471;51.040;14.414;2022-11-14T04:35:04;16.73;;;9.38;;
45760;SDS011;31471;51.040;14.414;2022-11-14T04:37:48;14.50;;;8.23;;
45760;SDS011;31471;51.040;14.414;2022-11-14T04:40:32;12.50;;;7.93;;
45760;SDS011;31471;51.040;14.414;2022-11-14T04:43:17;15.13;;;9.13;;
45760;SDS011;31471;51.040;14.414;2022-11-14T04:46:02;16.85;;;8.25;;
45760;SDS011;31471;51.040;14.414;2022-11-14T04:48:46;15.13;;;8.07;;
45760;SDS011;31471;51.040;14.414;2022-11-14T04:51:30;16.17;;;8.43;;
45760;SDS011;31471;51.040;14.414;2022-11-14T04:54:14;15.60;;;8.18;;
45760;SDS011;31471;51.040;14.414;2022-11-14T04:56:58;13.32;;;8.00;;
45760;SDS011;31471;51.040;14.414;2022-11-14T04:59:42;20.00;;;9.55;;
45760;SDS011;31471;51.040;14.414;2022-11-14T05:02:29;14.38;;;8.55;;
45760;SDS011;31471;51.040;14.414;2022-11-14T05:07:58;16.23;;;8.52;;
45760;SDS011;31471;51.040;14.414;2022-11-14T05:10:43;15.75;;;9.20;;
45760;SDS011;31471;51.040;14.414;2022-11-14T05:13:28;15.30;;;8.93;;
45760;SDS011;31471;51.040;14.414;2022-11-14T05:16:13;13.98;;;8.48;;
45760;SDS011;31471;51.040;14.414;2022-11-14T05:18:57;14.45;;;8.68;;
45760;SDS011;31471;51.040;14.414;2022-11-14T05:21:41;15.25;;;8.30;;
45760;SDS011;31471;51.040;14.414;2022-11-14T05:24:25;16.83;;;8.75;;
45760;SDS011;31471;51.040;14.414;2022-11-14T05:27:10;18.83;;;10.18;;
45760;SDS011;31471;51.040;14.414;2022-11-14T05:29:55;16.48;;;8.75;;
45760;SDS011;31471;51.040;14.414;2022-11-14T05:32:39;14.50;;;8.93;;
45760;SDS011;31471;51.040;14.414;2022-11-14T05:35:23;17.20;;;8.77;;
45760;SDS011;31471;51.040;14.414;2022-11-14T05:38:07;16.75;;;9.45;;
45760;SDS011;31471;51.040;14.414;2022-11-14T05:40:51;16.67;;;8.93;;
45760;SDS011;31471;51.040;14.414;2022-11-14T05:43:35;15.43;;;8.75;;
45760;SDS011;31471;51.040;14.414;2022-11-14T05:46:19;16.85;;;9.05;;
45760;SDS011;31471;51.040;14.414;2022-11-14T05:49:03;16.60;;;8.70;;
45760;SDS011;31471;51.040;14.414;2022-11-14T05:51:47;16.33;;;9.38;;
45760;SDS011;31471;51.040;14.414;2022-11-14T05:54:31;14.45;;;8.35;;
45760;SDS011;31471;51.040;14.414;2022-11-14T05:57:15;15.82;;;9.00;;
45760;SDS011;31471;51.040;14.414;2022-11-14T05:59:59;18.90;;;9.52;;
45760;SDS011;31471;51.040;14.414;2022-11-14T06:02:44;17.90;;;9.40;;
45760;SDS011;31471;51.040;14.414;2022-11-14T06:05:29;18.42;;;10.20;;
45760;SDS011;31471;51.040;14.414;2022-11-14T06:08:13;17.73;;;10.20;;
45760;SDS011;31471;51.040;14.414;2022-11-14T06:11:00;14.65;;;8.63;;
45760;SDS011;31471;51.040;14.414;2022-11-14T06:13:49;20.88;;;10.52;;
45760;SDS011;31471;51.040;14.414;2022-11-14T06:16:33;15.30;;;9.10;;
45760;SDS011;31471;51.040;14.414;2022-11-14T06:19:17;17.13;;;9.27;;
45760;SDS011;31471;51.040;14.414;2022-11-14T06:22:01;17.92;;;10.02;;
45760;SDS011;31471;51.040;14.414;2022-11-14T06:24:45;19.42;;;9.95;;
45760;SDS011;31471;51.040;14.414;2022-11-14T06:27:29;17.55;;;10.20;;
45760;SDS011;31471;51.040;14.414;2022-11-14T06:30:14;20.42;;;9.40;;
45760;SDS011;31471;51.040;14.414;2022-11-14T06:32:58;19.35;;;9.75;;
45760;SDS011;31471;51.040;14.414;2022-11-14T06:35:42;18.88;;;10.07;;
45760;SDS011;31471;51.040;14.414;2022-11-14T06:38:27;19.50;;;10.90;;
45760;SDS011;31471;51.040;14.414;2022-11-14T06:41:14;20.15;;;11.02;;
45760;SDS011;31471;51.040;14.414;2022-11-14T06:44:01;21.02;;;11.43;;
45760;SDS011;31471;51.040;14.414;2022-11-14T06:46:44;22.92;;;12.23;;
45760;SDS011;31471;51.040;14.414;2022-11-14T06:49:28;19.90;;;11.35;;
45760;SDS011;31471;51.040;14.414;2022-11-14T06:52:13;21.08;;;11.13;;
45760;SDS011;31471;51.040;14.414;2022-11-14T06:54:57;21.88;;;11.30;;
45760;SDS011;31471;51.040;14.414;2022-11-14T06:57:41;21.23;;;11.05;;
45760;SDS011;31471;51.040;14.414;2022-11-14T07:00:25;33.67;;;12.35;;
45760;SDS011;31471;51.040;14.414;2022-11-14T07:03:09;23.25;;;11.48;;
45760;SDS011;31471;51.040;14.414;2022-11-14T07:05:56;20.13;;;11.93;;
45760;SDS011;31471;51.040;14.414;2022-11-14T07:08:41;36.05;;;13.10;;
45760;SDS011;31471;51.040;14.414;2022-11-14T07:11:26;38.33;;;14.70;;
45760;SDS011;31471;51.040;14.414;2022-11-14T07:14:12;25.92;;;11.43;;
45760;SDS011;31471;51.040;14.414;2022-11-14T07:16:56;21.55;;;10.93;;
45760;SDS011;31471;51.040;14.414;2022-11-14T07:19:41;21.38;;;12.35;;
45760;SDS011;31471;51.040;14.414;2022-11-14T07:22:25;22.35;;;11.30;;
45760;SDS011;31471;51.040;14.414;2022-11-14T07:25:09;18.35;;;11.30;;
45760;SDS011;31471;51.040;14.414;2022-11-14T07:27:53;23.90;;;12.23;;
45760;SDS011;31471;51.040;14.414;2022-11-14T07:30:40;22.05;;;12.05;;
45760;SDS011;31471;51.040;14.414;2022-11-14T07:33:24;21.90;;;11.77;;
45760;SDS011;31471;51.040;14.414;2022-11-14T07:36:08;40.25;;;12.07;;
45760;SDS011;31471;51.040;14.414;2022-11-14T07:38:54;23.33;;;11.30;;
45760;SDS011;31471;51.040;14.414;2022-11-14T07:41:38;26.20;;;13.02;;
45760;SDS011;31471;51.040;14.414;2022-11-14T07:44:23;26.42;;;12.43;;
45760;SDS011;31471;51.040;14.414;2022-11-14T07:47:07;35.65;;;14.13;;
45760;SDS011;31471;51.040;14.414;2022-11-14T07:49:51;31.15;;;12.07;;
45760;SDS011;31471;51.040;14.414;2022-11-14T07:52:35;41.80;;;13.05;;
45760;SDS011;31471;51.040;14.414;2022-11-14T07:55:20;28.90;;;12.55;;
45760;SDS011;31471;51.040;14.414;2022-11-14T07:58:04;61.40;;;16.67;;
45760;SDS011;31471;51.040;14.414;2022-11-14T08:00:48;25.05;;;13.60;;
45760;SDS011;31471;51.040;14.414;2022-11-14T08:03:32;24.35;;;11.90;;
45760;SDS011;31471;51.040;14.414;2022-11-14T08:06:17;22.15;;;12.35;;
45760;SDS011;31471;51.040;14.414;2022-11-14T08:09:01;20.80;;;11.48;;
45760;SDS011;31471;51.040;14.414;2022-11-14T08:11:45;23.70;;;12.48;;
45760;SDS011;31471;51.040;14.414;2022-11-14T08:14:32;23.00;;;12.63;;
45760;SDS011;31471;51.040;14.414;2022-11-14T08:17:17;20.35;;;11.95;;
45760;SDS011;31471;51.040;14.414;2022-11-14T08:20:03;22.23;;;12.63;;
45760;SDS011;31471;51.040;14.414;2022-11-14T08:22:48;24.30;;;13.10;;
45760;SDS011;31471;51.040;14.414;2022-11-14T08:25:32;21.77;;;11.65;;
45760;SDS011;31471;51.040;14.414;2022-11-14T08:28:16;20.83;;;11.70;;
45760;SDS011;31471;51.040;14.414;2022-11-14T08:31:01;20.92;;;11.88;;
45760;SDS011;31471;51.040;14.414;2022-11-14T08:33:46;23.77;;;13.10;;
45760;SDS011;31471;51.040;14.414;2022-11-14T08:36:33;20.98;;;12.15;;
45760;SDS011;31471;51.040;14.414;2022-11-14T08:39:17;23.80;;;12.02;;
45760;SDS011;31471;51.040;14.414;2022-11-14T08:42:01;20.15;;;11.23;;
45760;SDS011;31471;51.040;14.414;2022-11-14T08:44:45;25.15;;;13.35;;
45760;SDS011;31471;51.040;14.414;2022-11-14T08:47:29;21.55;;;12.88;;
45760;SDS011;31471;51.040;14.414;2022-11-14T08:50:13;24.42;;;13.13;;
45760;SDS011;31471;51.040;14.414;2022-11-14T08:52:58;22.60;;;11.88;;
45760;SDS011;31471;51.040;14.414;2022-11-14T08:55:45;20.30;;;11.15;;
45760;SDS011;31471;51.040;14.414;2022-11-14T08:58:30;18.48;;;10.27;;
45760;SDS011;31471;51.040;14.414;2022-11-14T09:01:15;18.77;;;10.68;;
45760;SDS011;31471;51.040;14.414;2022-11-14T09:03:59;19.00;;;11.80;;
45760;SDS011;31471;51.040;14.414;2022-11-14T09:06:44;18.55;;;10.38;;
45760;SDS011;31471;51.040;14.414;2022-11-14T09:09:29;20.65;;;11.32;;
45760;SDS011;31471;51.040;14.414;2022-11-14T09:12:13;19.55;;;10.80;;
45760;SDS011;31471;51.040;14.414;2022-11-14T09:14:57;19.02;;;10.88;;
45760;SDS011;31471;51.040;14.414;2022-11-14T09:17:41;20.55;;;11.43;;
45760;SDS011;31471;51.040;14.414;2022-11-14T09:20:25;19.13;;;11.15;;
45760;SDS011;31471;51.040;14.414;2022-11-14T09:23:10;20.35;;;11.15;;
45760;SDS011;31471;51.040;14.414;2022-11-14T09:25:54;21.08;;;11.85;;
45760;SDS011;31471;51.040;14.414;2022-11-14T09:28:39;20.17;;;11.23;;
45760;SDS011;31471;51.040;14.414;2022-11-14T09:31:24;17.48;;;11.10;;
45760;SDS011;31471;51.040;14.414;2022-11-14T09:34:08;18.55;;;11.43;;
45760;SDS011;31471;51.040;14.414;2022-11-14T09:36:52;20.67;;;11.13;;
45760;SDS011;31471;51.040;14.414;2022-11-14T09:39:36;19.73;;;10.52;;
45760;SDS011;31471;51.040;14.414;2022-11-14T09:42:29;17.38;;;10.25;;
45760;SDS011;31471;51.040;14.414;2022-11-14T09:45:21;19.42;;;10.82;;
45760;SDS011;31471;51.040;14.414;2022-11-14T09:48:09;19.45;;;10.40;;
45760;SDS011;31471;51.040;14.414;2022-11-14T09:53:55;16.75;;;10.13;;
45760;SDS011;31471;51.040;14.414;2022-11-14T09:57:03;18.48;;;10.73;;
45760;SDS011;31471;51.040;14.414;2022-11-14T09:59:56;16.75;;;9.57;;
45760;SDS011;31471;51.040;14.414;2022-11-14T10:05:59;19.20;;;10.52;;
45760;SDS011;31471;51.040;14.414;2022-11-14T10:11:50;15.32;;;9.07;;
45760;SDS011;31471;51.040;14.414;2022-11-14T10:21:04;16.95;;;9.48;;
45760;SDS011;31471;51.040;14.414;2022-11-14T10:24:04;19.52;;;10.35;;
45760;SDS011;31471;51.040;14.414;2022-11-14T10:27:04;18.70;;;10.18;;
45760;SDS011;31471;51.040;14.414;2022-11-14T10:33:12;15.70;;;9.70;;
45760;SDS011;31471;51.040;14.414;2022-11-14T10:36:53;16.25;;;9.93;;
45760;SDS011;31471;51.040;14.414;2022-11-14T10:40:08;18.23;;;10.63;;
45760;SDS011;31471;51.040;14.414;2022-11-14T10:43:15;18.83;;;11.32;;
45760;SDS011;31471;51.040;14.414;2022-11-14T10:49:21;16.52;;;10.65;;
45760;SDS011;31471;51.040;14.414;2022-11-14T10:52:09;17.17;;;11.07;;
45760;SDS011;31471;51.040;14.414;2022-11-14T10:54:57;18.80;;;10.63;;
45760;SDS011;31471;51.040;14.414;2022-11-14T10:57:46;20.98;;;10.48;;
45760;SDS011;31471;51.040;14.414;2022-11-14T11:00:30;18.13;;;9.60;;
45760;SDS011;31471;51.040;14.414;2022-11-14T11:03:14;19.83;;;10.32;;
45760;SDS011;31471;51.040;14.414;2022-11-14T11:05:58;17.35;;;10.52;;
45760;SDS011;31471;51.040;14.414;2022-11-14T11:08:42;16.35;;;10.45;;
45760;SDS011;31471;51.040;14.414;2022-11-14T11:11:54;17.02;;;10.65;;
45760;SDS011;31471;51.040;14.414;2022-11-14T11:14:40;15.52;;;10.43;;
45760;SDS011;31471;51.040;14.414;2022-11-14T11:17:25;18.65;;;10.18;;
45760;SDS011;31471;51.040;14.414;2022-11-14T11:20:20;20.23;;;11.90;;
45760;SDS011;31471;51.040;14.414;2022-11-14T11:26:00;17.73;;;10.50;;
45760;SDS011;31471;51.040;14.414;2022-11-14T11:31:55;16.63;;;10.55;;
45760;SDS011;31471;51.040;14.414;2022-11-14T11:34:41;19.77;;;11.93;;
45760;SDS011;31471;51.040;14.414;2022-11-14T11:37:26;20.02;;;10.82;;
45760;SDS011;31471;51.040;14.414;2022-11-14T11:40:31;19.88;;;10.75;;
45760;SDS011;31471;51.040;14.414;2022-11-14T11:43:24;18.45;;;10.25;;
45760;SDS011;31471;51.040;14.414;2022-11-14T11:46:17;17.60;;;9.35;;
45760;SDS011;31471;51.040;14.414;2022-11-14T11:49:10;18.15;;;10.80;;
45760;SDS011;31471;51.040;14.414;2022-11-14T11:52:03;20.13;;;11.25;;
45760;SDS011;31471;51.040;14.414;2022-11-14T11:55:12;17.95;;;10.70;;
45760;SDS011;31471;51.040;14.414;2022-11-14T12:00:53;17.48;;;10.77;;
45760;SDS011;31471;51.040;14.414;2022-11-14T12:03:38;17.95;;;10.65;;
45760;SDS011;31471;51.040;14.414;2022-11-14T12:06:26;17.90;;;10.57;;
45760;SDS011;31471;51.040;14.414;2022-11-14T12:09:21;18.63;;;10.57;;
45760;SDS011;31471;51.040;14.414;2022-11-14T12:12:13;17.20;;;10.63;;
45760;SDS011;31471;51.040;14.414;2022-11-14T12:15:14;18.80;;;11.90;;
45760;SDS011;31471;51.040;14.414;2022-11-14T12:18:57;18.13;;;10.95;;
45760;SDS011;31471;51.040;14.414;2022-11-14T12:21:25;16.13;;;10.68;;
45760;SDS011;31471;51.040;14.414;2022-11-14T12:27:55;18.80;;;10.85;;
45760;SDS011;31471;51.040;14.414;2022-11-14T12:30:49;14.30;;;9.13;;
45760;SDS011;31471;51.040;14.414;2022-11-14T12:33:39;19.83;;;11.82;;
45760;SDS011;31471;51.040;14.414;2022-11-14T12:36:31;19.48;;;11.32;;
45760;SDS011;31471;51.040;14.414;2022-11-14T12:39:21;16.45;;;11.00;;
45760;SDS011;31471;51.040;14.414;2022-11-14T12:42:09;20.40;;;11.93;;
45760;SDS011;31471;51.040;14.414;2022-11-14T12:44:58;21.67;;;13.23;;
45760;SDS011;31471;51.040;14.414;2022-11-14T12:48:12;19.85;;;11.40;;
45760;SDS011;31471;51.040;14.414;2022-11-14T12:57:34;17.98;;;11.23;;
45760;SDS011;31471;51.040;14.414;2022-11-14T13:12:58;20.80;;;12.13;;
45760;SDS011;31471;51.040;14.414;2022-11-14T13:16:20;19.67;;;11.77;;
45760;SDS011;31471;51.040;14.414;2022-11-14T13:19:27;21.13;;;11.80;;
45760;SDS011;31471;51.040;14.414;2022-11-14T13:22:35;22.42;;;12.80;;
45760;SDS011;31471;51.040;14.414;2022-11-14T13:25:25;23.55;;;12.40;;
45760;SDS011;31471;51.040;14.414;2022-11-14T13:46:47;23.30;;;13.20;;
45760;SDS011;31471;51.040;14.414;2022-11-14T13:52:45;24.85;;;14.02;;
45760;SDS011;31471;51.040;14.414;2022-11-14T13:55:35;23.90;;;14.65;;
45760;SDS011;31471;51.040;14.414;2022-11-14T14:07:17;25.40;;;14.63;;
45760;SDS011;31471;51.040;14.414;2022-11-14T14:10:14;26.85;;;14.73;;
45760;SDS011;31471;51.040;14.414;2022-11-14T14:16:15;26.67;;;15.43;;
45760;SDS011;31471;51.040;14.414;2022-11-14T14:28:29;23.95;;;14.52;;
45760;SDS011;31471;51.040;14.414;2022-11-14T14:31:31;22.70;;;14.85;;
45760;SDS011;31471;51.040;14.414;2022-11-14T14:34:22;25.70;;;15.48;;
45760;SDS011;31471;51.040;14.414;2022-11-14T14:37:21;23.90;;;14.60;;
45760;SDS011;31471;51.040;14.414;2022-11-14T14:40:21;27.25;;;15.82;;
45760;SDS011;31471;51.040;14.414;2022-11-14T14:43:11;23.02;;;14.23;;
45760;SDS011;31471;51.040;14.414;2022-11-14T14:46:05;25.92;;;15.45;;
45760;SDS011;31471;51.040;14.414;2022-11-14T14:48:49;24.80;;;15.95;;
45760;SDS011;31471;51.040;14.414;2022-11-14T14:51:34;24.38;;;15.02;;
45760;SDS011;31471;51.040;14.414;2022-11-14T14:54:21;26.55;;;14.38;;
45760;SDS011;31471;51.040;14.414;2022-11-14T14:57:14;23.50;;;15.05;;
45760;SDS011;31471;51.040;14.414;2022-11-14T15:00:03;26.55;;;15.30;;
45760;SDS011;31471;51.040;14.414;2022-11-14T15:02:59;28.45;;;15.95;;
45760;SDS011;31471;51.040;14.414;2022-11-14T15:05:43;27.15;;;15.75;;
45760;SDS011;31471;51.040;14.414;2022-11-14T15:08:28;29.05;;;16.02;;
45760;SDS011;31471;51.040;14.414;2022-11-14T15:11:14;26.35;;;16.40;;
45760;SDS011;31471;51.040;14.414;2022-11-14T15:13:58;26.70;;;15.05;;
45760;SDS011;31471;51.040;14.414;2022-11-14T15:16:44;26.33;;;15.57;;
45760;SDS011;31471;51.040;14.414;2022-11-14T15:19:39;33.13;;;18.23;;
45760;SDS011;31471;51.040;14.414;2022-11-14T15:22:25;28.73;;;16.40;;
45760;SDS011;31471;51.040;14.414;2022-11-14T15:27:56;27.05;;;15.38;;
45760;SDS011;31471;51.040;14.414;2022-11-14T15:30:55;30.98;;;17.13;;
45760;SDS011;31471;51.040;14.414;2022-11-14T15:33:41;29.70;;;16.48;;
45760;SDS011;31471;51.040;14.414;2022-11-14T15:36:25;29.10;;;17.17;;
45760;SDS011;31471;51.040;14.414;2022-11-14T15:39:22;27.02;;;16.17;;
45760;SDS011;31471;51.040;14.414;2022-11-14T15:50:58;27.50;;;15.98;;
45760;SDS011;31471;51.040;14.414;2022-11-14T15:53:45;29.70;;;16.75;;
45760;SDS011;31471;51.040;14.414;2022-11-14T15:56:31;30.70;;;18.45;;
45760;SDS011;31471;51.040;14.414;2022-11-14T15:59:15;32.17;;;17.48;;
45760;SDS011;31471;51.040;14.414;2022-11-14T16:02:19;30.65;;;18.33;;
45760;SDS011;31471;51.040;14.414;2022-11-14T16:05:06;32.05;;;18.77;;
45760;SDS011;31471;51.040;14.414;2022-11-14T16:07:55;32.90;;;17.45;;
45760;SDS011;31471;51.040;14.414;2022-11-14T16:10:39;33.45;;;18.58;;
45760;SDS011;31471;51.040;14.414;2022-11-14T16:13:23;34.80;;;19.08;;
45760;SDS011;31471;51.040;14.414;2022-11-14T16:16:07;30.58;;;17.13;;
45760;SDS011;31471;51.040;14.414;2022-11-14T16:18:51;31.38;;;18.73;;
45760;SDS011;31471;51.040;14.414;2022-11-14T16:21:35;31.23;;;18.55;;
45760;SDS011;31471;51.040;14.414;2022-11-14T16:24:20;30.90;;;17.50;;
45760;SDS011;31471;51.040;14.414;2022-11-14T16:27:05;33.33;;;17.92;;
45760;SDS011;31471;51.040;14.414;2022-11-14T16:29:50;29.38;;;17.20;;
45760;SDS011;31471;51.040;14.414;2022-11-14T16:32:35;34.13;;;18.40;;
45760;SDS011;31471;51.040;14.414;2022-11-14T16:35:23;34.08;;;19.65;;
45760;SDS011;31471;51.040;14.414;2022-11-14T16:38:10;32.33;;;18.15;;
45760;SDS011;31471;51.040;14.414;2022-11-14T16:40:55;32.03;;;18.20;;
45760;SDS011;31471;51.040;14.414;2022-11-14T16:43:39;30.00;;;17.52;;
45760;SDS011;31471;51.040;14.414;2022-11-14T16:46:23;32.63;;;18.63;;
45760;SDS011;31471;51.040;14.414;2022-11-14T16:49:10;33.42;;;18.08;;
45760;SDS011;31471;51.040;14.414;2022-11-14T16:51:59;33.72;;;17.63;;
45760;SDS011;31471;51.040;14.414;2022-11-14T16:54:48;31.50;;;17.65;;
45760;SDS011;31471;51.040;14.414;2022-11-14T16:57:32;33.65;;;18.13;;
45760;SDS011;31471;51.040;14.414;2022-11-14T17:00:16;30.23;;;17.38;;
45760;SDS011;31471;51.040;14.414;2022-11-14T17:03:00;36.45;;;19.95;;
45760;SDS011;31471;51.040;14.414;2022-11-14T17:05:45;35.42;;;18.70;;
45760;SDS011;31471;51.040;14.414;2022-11-14T17:08:31;31.30;;;17.50;;
45760;SDS011;31471;51.040;14.414;2022-11-14T17:11:15;32.55;;;18.00;;
45760;SDS011;31471;51.040;14.414;2022-11-14T17:13:59;39.75;;;21.40;;
45760;SDS011;31471;51.040;14.414;2022-11-14T17:16:44;35.13;;;19.50;;
45760;SDS011;31471;51.040;14.414;2022-11-14T17:19:29;36.42;;;19.67;;
45760;SDS011;31471;51.040;14.414;2022-11-14T17:22:13;39.10;;;19.83;;
45760;SDS011;31471;51.040;14.414;2022-11-14T17:24:59;36.50;;;20.33;;
45760;SDS011;31471;51.040;14.414;2022-11-14T17:27:43;40.90;;;20.60;;
45760;SDS011;31471;51.040;14.414;2022-11-14T17:30:27;39.72;;;20.35;;
45760;SDS011;31471;51.040;14.414;2022-11-14T17:33:11;36.67;;;20.60;;
45760;SDS011;31471;51.040;14.414;2022-11-14T17:35:55;38.88;;;21.45;;
45760;SDS011;31471;51.040;14.414;2022-11-14T17:38:44;37.22;;;20.00;;
45760;SDS011;31471;51.040;14.414;2022-11-14T17:41:28;37.47;;;19.98;;
45760;SDS011;31471;51.040;14.414;2022-11-14T17:44:12;36.92;;;21.38;;
45760;SDS011;31471;51.040;14.414;2022-11-14T17:46:56;35.78;;;20.48;;
45760;SDS011;31471;51.040;14.414;2022-11-14T17:49:40;38.25;;;20.98;;
45760;SDS011;31471;51.040;14.414;2022-11-14T17:52:24;40.10;;;21.08;;
45760;SDS011;31471;51.040;14.414;2022-11-14T17:55:08;36.40;;;20.40;;
45760;SDS011;31471;51.040;14.414;2022-11-14T17:57:52;40.10;;;21.38;;